Welcome to the New NWS' Forecast!
Most changes are behind the scenes, but click here for differences you might notice.

Terminal Aerodrome Forecast (TAF)

Issued by National Weather Service (NWS)

                            
161 
FTUS42 KKEY 162328
TAFMTH
TAF
KMTH 162328Z 1700/1724 11007KT P6SM SCT025=